Wetterdaten: Sonntag, 03.07.2011
Datum Zeit Temp. a Sch. Temp. a Son. Temp. a Bod. Feuchte a. Luftdruck Regen Wind Richtung Richtung Sonnenschein Helligkeit Taupunkt Windchill
03.07.2011 00:01 13,0 C 13,6 C 14,2 C 68 % 1015 hPa 0,0 l/m 5,2 m/s (3 Bft) NW45 315 0 min 0 lux 7,2 C 7,6 C
03.07.2011 00:16 12,8 C 13,5 C 14,0 C 69 % 1014 hPa 0,0 l/m 2,9 m/s (2 Bft) NW45 305 0 min 0 lux 7,3 C 10,5 C
03.07.2011 00:31 12,5 C 13,4 C 13,8 C 71 % 1014 hPa 0,0 l/m 6,7 m/s (4 Bft) NW67.5 315 0 min 0 lux 7,4 C 5,5 C
03.07.2011 00:46 12,4 C 13,2 C 13,7 C 71 % 1014 hPa 0,0 l/m 5,8 m/s (4 Bft) N-NW22.5 335 0 min 0 lux 7,3 C 6,1 C
03.07.2011 01:01 12,3 C 13,1 C 13,6 C 72 % 1014 hPa 0,0 l/m 4,4 m/s (3 Bft) NW45 310 0 min 0 lux 7,4 C 7,6 C
03.07.2011 01:16 12,4 C 13,0 C 13,6 C 71 % 1014 hPa 0,0 l/m 3,5 m/s (3 Bft) W-NW67.5 295 0 min 0 lux 7,3 C 9,0 C
03.07.2011 01:31 12,3 C 12,9 C 13,4 C 70 % 1014 hPa 0,0 l/m 5,5 m/s (3 Bft) NW67.5 310 0 min 0 lux 7,0 C 6,3 C
03.07.2011 01:46 12,3 C 12,8 C 13,3 C 70 % 1014 hPa 0,0 l/m 7,2 m/s (4 Bft) N-NW45 330 0 min 0 lux 7,0 C 4,7 C
03.07.2011 02:01 12,2 C 12,8 C 13,3 C 70 % 1014 hPa 0,0 l/m 3,1 m/s (2 Bft) N-NW45 330 0 min 0 lux 6,9 C 9,5 C
03.07.2011 02:16 12,1 C 12,8 C 13,3 C 70 % 1014 hPa 0,0 l/m 2,9 m/s (2 Bft) NW45 305 0 min 0 lux 6,8 C 9,8 C
03.07.2011 02:31 12,1 C 12,7 C 13,1 C 70 % 1014 hPa 0,0 l/m 3,3 m/s (2 Bft) NW45 310 0 min 0 lux 6,8 C 8,9 C
03.07.2011 02:46 12,0 C 12,6 C 13,1 C 70 % 1014 hPa 0,0 l/m 2,5 m/s (2 Bft) W45 270 0 min 0 lux 6,7 C 10,4 C
03.07.2011 03:01 12,0 C 12,6 C 13,1 C 70 % 1014 hPa 0,0 l/m 0,5 m/s (1 Bft) W45 270 0 min 0 lux 6,7 C 12,0 C
03.07.2011 03:16 11,9 C 12,5 C 13,0 C 70 % 1014 hPa 0,0 l/m 5,5 m/s (3 Bft) N-NW45 330 0 min 0 lux 6,6 C 5,8 C
03.07.2011 03:31 11,8 C 12,5 C 12,9 C 70 % 1014 hPa 0,0 l/m 4,5 m/s (3 Bft) NW45 325 0 min 0 lux 6,5 C 6,8 C
03.07.2011 03:46 11,8 C 12,4 C 12,8 C 71 % 1014 hPa 0,0 l/m 0,6 m/s (1 Bft) NW67.5 305 0 min 0 lux 6,7 C 11,8 C
03.07.2011 04:01 11,7 C 12,4 C 12,8 C 71 % 1013 hPa 0,0 l/m 6,1 m/s (4 Bft) N-NW45 335 0 min 0 lux 6,6 C 5,0 C
03.07.2011 04:16 11,6 C 12,3 C 12,8 C 73 % 1013 hPa 0,0 l/m 0,1 m/s (0 Bft) W-NW67.5 295 0 min 0 lux 6,9 C 11,6 C
03.07.2011 04:31 11,5 C 12,2 C 12,7 C 74 % 1013 hPa 0,0 l/m 5,0 m/s (3 Bft) NW45 325 0 min 0 lux 7,0 C 5,8 C
03.07.2011 04:46 11,5 C 12,1 C 12,6 C 74 % 1013 hPa 0,0 l/m 3,9 m/s (3 Bft) NW45 310 0 min 0 lux 7,0 C 7,4 C
03.07.2011 05:01 11,5 C 12,1 C 12,6 C 75 % 1013 hPa 0,0 l/m 5,4 m/s (3 Bft) W-NW45 300 0 min 0 lux 7,2 C 5,4 C
03.07.2011 05:16 11,5 C 12,0 C 12,6 C 75 % 1013 hPa 0,0 l/m 4,5 m/s (3 Bft) N-NW45 330 0 min 80 lux 7,2 C 6,5 C
03.07.2011 05:31 11,4 C 12,0 C 12,5 C 75 % 1013 hPa 0,0 l/m 3,8 m/s (3 Bft) NW45 315 0 min 180 lux 7,1 C 7,4 C
03.07.2011 05:46 11,4 C 12,0 C 12,5 C 76 % 1013 hPa 0,0 l/m 4,9 m/s (3 Bft) N-NW45 335 0 min 493 lux 7,3 C 5,8 C
03.07.2011 06:01 11,4 C 12,0 C 12,5 C 76 % 1013 hPa 0,0 l/m 3,6 m/s (3 Bft) NW67.5 305 0 min 904 lux 7,3 C 7,6 C
03.07.2011 06:16 11,4 C 12,0 C 12,5 C 77 % 1013 hPa 0,0 l/m 5,0 m/s (3 Bft) NW45 320 0 min 1,68 klux 7,5 C 5,8 C
03.07.2011 06:31 11,4 C 12,0 C 12,5 C 77 % 1013 hPa 0,0 l/m 3,9 m/s (3 Bft) NW67.5 310 0 min 2,82 klux 7,5 C 7,2 C
03.07.2011 06:46 11,5 C 12,1 C 12,6 C 77 % 1013 hPa 0,0 l/m 4,3 m/s (3 Bft) NW67.5 325 0 min 4,79 klux 7,6 C 6,8 C
03.07.2011 07:01 11,6 C 12,2 C 12,7 C 77 % 1013 hPa 0,0 l/m 5,4 m/s (3 Bft) N-NW22.5 340 0 min 6,63 klux 7,7 C 5,5 C
03.07.2011 07:16 11,7 C 12,3 C 12,7 C 77 % 1013 hPa 0,0 l/m 5,6 m/s (4 Bft) NW45 320 0 min 6,09 klux 7,8 C 5,4 C
03.07.2011 07:30 11,6 C 12,2 C 12,7 C 77 % 1013 hPa 0,0 l/m 6,3 m/s (4 Bft) N-NW45 330 0 min 6,18 klux 7,7 C 4,6 C
03.07.2011 07:45 11,7 C 12,3 C 12,8 C 76 % 1013 hPa 0,0 l/m 4,8 m/s (3 Bft) N-NW22.5 330 0 min 7,43 klux 7,6 C 6,4 C
03.07.2011 08:00 12,0 C 12,4 C 12,9 C 74 % 1013 hPa 0,0 l/m 6,1 m/s (4 Bft) N-NW45 335 0 min 10,8 klux 7,5 C 5,3 C
03.07.2011 08:15 12,0 C 12,6 C 13,0 C 74 % 1013 hPa 0,0 l/m 6,8 m/s (4 Bft) NW45 315 0 min 10,4 klux 7,5 C 4,7 C
03.07.2011 08:30 12,0 C 12,6 C 13,1 C 75 % 1013 hPa 0,0 l/m 5,2 m/s (3 Bft) NW45 310 0 min 6,94 klux 7,7 C 6,3 C
03.07.2011 08:45 12,1 C 12,6 C 13,1 C 74 % 1013 hPa 0,0 l/m 7,4 m/s (4 Bft) N-NW22.5 340 0 min 8,11 klux 7,6 C 4,3 C
03.07.2011 09:00 12,0 C 12,7 C 13,1 C 73 % 1014 hPa 0,0 l/m 1,4 m/s (1 Bft) W-NW45 295 0 min 8,36 klux 7,3 C 12,0 C
03.07.2011 09:15 12,0 C 12,7 C 13,2 C 73 % 1014 hPa 0,0 l/m 5,2 m/s (3 Bft) NW45 320 0 min 12,6 klux 7,3 C 6,3 C
03.07.2011 09:30 12,4 C 12,9 C 13,5 C 72 % 1014 hPa 0,0 l/m 5,6 m/s (4 Bft) N-NW67.5 330 0 min 14,1 klux 7,5 C 6,4 C
03.07.2011 09:45 12,5 C 13,0 C 13,7 C 71 % 1014 hPa 0,0 l/m 3,7 m/s (3 Bft) NW45 320 0 min 18,5 klux 7,4 C 8,8 C
03.07.2011 10:00 12,7 C 13,2 C 14,0 C 71 % 1014 hPa 0,0 l/m 0,5 m/s (1 Bft) NW45 310 0 min 20,2 klux 7,6 C 12,7 C
03.07.2011 10:15 13,3 C 13,6 C 14,5 C 70 % 1014 hPa 0,0 l/m 5,6 m/s (4 Bft) NW67.5 315 0 min 28,7 klux 7,9 C 7,5 C
03.07.2011 10:30 13,6 C 14,1 C 15,0 C 69 % 1014 hPa 0,0 l/m 5,1 m/s (3 Bft) NW67.5 310 0 min 37,7 klux 8,0 C 8,5 C
03.07.2011 10:45 13,7 C 14,5 C 15,0 C 69 % 1014 hPa 0,0 l/m 4,3 m/s (3 Bft) NW45 315 0 min 37,4 klux 8,1 C 9,5 C
03.07.2011 11:00 13,9 C 14,6 C 15,4 C 69 % 1014 hPa 0,0 l/m 6,2 m/s (4 Bft) N-NW22.5 335 0 min 36,6 klux 8,3 C 7,7 C
03.07.2011 11:15 13,7 C 14,7 C 15,5 C 69 % 1014 hPa 0,0 l/m 6,5 m/s (4 Bft) N-NW45 335 0 min 37,2 klux 8,1 C 7,2 C
03.07.2011 11:31 14,0 C 14,9 C 15,8 C 70 % 1014 hPa 0,0 l/m 6,8 m/s (4 Bft) N-NW22.5 340 0 min 40,0 klux 8,6 C 7,3 C
03.07.2011 11:46 13,6 C 14,7 C 15,6 C 71 % 1014 hPa 0,0 l/m 6,6 m/s (4 Bft) NW45 325 0 min 21,1 klux 8,4 C 7,0 C
03.07.2011 12:01 13,5 C 14,4 C 15,5 C 71 % 1014 hPa 0,0 l/m 7,9 m/s (4 Bft) N-NW45 335 0 min 19,4 klux 8,3 C 5,9 C
03.07.2011 12:16 13,4 C 14,4 C 15,5 C 72 % 1014 hPa 0,0 l/m 7,1 m/s (4 Bft) N-NW45 335 0 min 19,2 klux 8,5 C 6,3 C
03.07.2011 12:31 13,6 C 14,4 C 15,7 C 71 % 1014 hPa 0,0 l/m 5,9 m/s (4 Bft) N-NW22.5 335 0 min 18,6 klux 8,4 C 7,6 C
03.07.2011 12:46 13,6 C 14,4 C 15,6 C 72 % 1015 hPa 0,0 l/m 6,6 m/s (4 Bft) N-NW45 335 0 min 18,8 klux 8,6 C 7,0 C
03.07.2011 13:01 13,8 C 14,5 C 15,6 C 72 % 1015 hPa 0,0 l/m 7,0 m/s (4 Bft) NW45 325 0 min 21,1 klux 8,8 C 7,0 C
03.07.2011 13:16 14,0 C 14,5 C 15,7 C 71 % 1015 hPa 0,0 l/m 4,2 m/s (3 Bft) NW45 320 0 min 21,5 klux 8,8 C 9,9 C
03.07.2011 13:31 14,1 C 14,7 C 15,8 C 71 % 1015 hPa 0,0 l/m 2,7 m/s (2 Bft) NW67.5 305 0 min 19,2 klux 8,9 C 12,3 C
03.07.2011 13:46 13,9 C 14,7 C 15,8 C 72 % 1015 hPa 0,0 l/m 4,9 m/s (3 Bft) N-NW45 330 0 min 19,5 klux 8,9 C 9,0 C
03.07.2011 14:01 14,1 C 14,7 C 16,1 C 72 % 1015 hPa 0,0 l/m 8,4 m/s (5 Bft) N-NW22.5 335 0 min 28,8 klux 9,1 C 6,4 C
03.07.2011 14:16 14,8 C 14,9 C 16,3 C 71 % 1015 hPa 0,0 l/m 5,6 m/s (4 Bft) NW45 315 0 min 28,3 klux 9,6 C 9,5 C
03.07.2011 14:31 14,5 C 15,2 C 16,0 C 70 % 1015 hPa 0,0 l/m 7,2 m/s (4 Bft) N-NW22.5 340 0 min 35,5 klux 9,1 C 7,7 C
03.07.2011 14:46 14,1 C 15,1 C 16,1 C 72 % 1015 hPa 0,0 l/m 5,6 m/s (4 Bft) NW45 325 0 min 22,8 klux 9,1 C 8,5 C
03.07.2011 15:01 14,2 C 15,1 C 16,1 C 71 % 1015 hPa 0,0 l/m 6,0 m/s (4 Bft) NW45 320 0 min 29,2 klux 9,0 C 8,3 C
03.07.2011 15:16 14,3 C 15,1 C 16,1 C 71 % 1015 hPa 0,0 l/m 6,2 m/s (4 Bft) N-NW22.5 335 0 min 22,2 klux 9,1 C 8,3 C
03.07.2011 15:31 14,1 C 15,1 C 16,2 C 72 % 1015 hPa 0,0 l/m 3,3 m/s (2 Bft) NW45 315 0 min 19,3 klux 9,1 C 11,4 C
03.07.2011 15:46 14,3 C 15,0 C 16,2 C 71 % 1015 hPa 0,0 l/m 5,8 m/s (4 Bft) N-NW22.5 335 0 min 20,6 klux 9,1 C 8,7 C
03.07.2011 16:01 14,0 C 14,9 C 16,1 C 71 % 1015 hPa 0,0 l/m 7,8 m/s (4 Bft) NW45 320 0 min 20,1 klux 8,8 C 6,6 C
03.07.2011 16:16 15,0 C 15,2 C 16,8 C 69 % 1015 hPa 0,0 l/m 5,0 m/s (3 Bft) N-NW22.5 335 0 min 46,5 klux 9,4 C 10,3 C
03.07.2011 16:31 15,5 C 15,9 C 16,9 C 68 % 1015 hPa 0,0 l/m 4,0 m/s (3 Bft) NW45 310 0 min 39,7 klux 9,6 C 12,0 C
03.07.2011 16:46 15,9 C 16,3 C 17,4 C 67 % 1015 hPa 0,0 l/m 6,5 m/s (4 Bft) W-NW67.5 300 0 min 44,9 klux 9,8 C 10,1 C
03.07.2011 17:01 15,2 C 16,1 C 16,9 C 68 % 1015 hPa 0,0 l/m 8,3 m/s (5 Bft) NW67.5 325 0 min 28,0 klux 9,3 C 8,0 C
03.07.2011 17:16 15,4 C 16,4 C 17,6 C 67 % 1015 hPa 0,0 l/m 8,0 m/s (4 Bft) N-NW45 340 0 min 35,3 klux 9,3 C 8,5 C
03.07.2011 17:31 15,4 C 16,3 C 17,3 C 68 % 1015 hPa 0,0 l/m 5,7 m/s (4 Bft) N-NW45 340 0 min 22,4 klux 9,5 C 10,2 C
03.07.2011 17:46 15,1 C 16,2 C 16,9 C 69 % 1015 hPa 0,0 l/m 4,9 m/s (3 Bft) N-NW45 330 0 min 19,7 klux 9,5 C 10,5 C
03.07.2011 18:01 14,8 C 16,0 C 16,9 C 70 % 1015 hPa 0,0 l/m 3,1 m/s (2 Bft) NW67.5 315 0 min 13,4 klux 9,4 C 12,4 C
03.07.2011 18:16 14,7 C 15,8 C 16,7 C 70 % 1015 hPa 0,0 l/m 0,6 m/s (1 Bft) W67.5 270 0 min 14,6 klux 9,3 C 14,7 C
03.07.2011 18:31 15,4 C 16,2 C 17,4 C 70 % 1015 hPa 0,0 l/m 0,7 m/s (1 Bft) NW45 305 0 min 28,0 klux 10,0 C 15,4 C
03.07.2011 18:46 15,8 C 16,5 C 17,2 C 69 % 1015 hPa 0,0 l/m 0,1 m/s (0 Bft) W67.5 280 0 min 20,4 klux 10,1 C 15,8 C
03.07.2011 19:01 15,6 C 16,3 C 17,3 C 69 % 1015 hPa 0,0 l/m 5,3 m/s (3 Bft) NW45 320 15 min 41,5 klux 9,9 C 10,7 C
03.07.2011 19:16 15,6 C 17,1 C 17,0 C 68 % 1015 hPa 0,0 l/m 0,0 m/s (0 Bft) W45 275 15 min 28,7 klux 9,7 C 15,6 C
03.07.2011 19:31 15,3 C 16,5 C 16,7 C 70 % 1015 hPa 0,0 l/m 3,6 m/s (3 Bft) NW45 320 0 min 14,9 klux 9,9 C 12,3 C
03.07.2011 19:46 15,0 C 16,1 C 16,5 C 70 % 1015 hPa 0,0 l/m 0,0 m/s (0 Bft) NW45 305 0 min 10,1 klux 9,6 C 15,0 C
03.07.2011 20:01 14,8 C 15,7 C 16,2 C 71 % 1015 hPa 0,0 l/m 0,1 m/s (0 Bft) NW45 305 0 min 8,13 klux 9,6 C 14,8 C
03.07.2011 20:16 14,8 C 15,5 C 16,1 C 71 % 1015 hPa 0,0 l/m 2,3 m/s (2 Bft) NW45 325 0 min 9,7 klux 9,6 C 13,7 C
03.07.2011 20:31 15,4 C 15,7 C 16,3 C 69 % 1015 hPa 0,0 l/m 0,1 m/s (0 Bft) NW45 315 15 min 12,8 klux 9,7 C 15,4 C
03.07.2011 20:46 14,8 C 15,5 C 16,0 C 72 % 1015 hPa 0,0 l/m 0,3 m/s (1 Bft) NW45 305 0 min 8,91 klux 9,8 C 14,8 C
03.07.2011 21:01 14,4 C 15,4 C 15,8 C 73 % 1015 hPa 0,0 l/m 2,2 m/s (2 Bft) NW45 320 0 min 3,60 klux 9,6 C 13,5 C
03.07.2011 21:16 14,1 C 15,1 C 15,6 C 74 % 1015 hPa 0,0 l/m 0,1 m/s (0 Bft) W45 270 0 min 2,20 klux 9,5 C 14,1 C
03.07.2011 21:31 13,9 C 14,8 C 15,3 C 75 % 1015 hPa 0,0 l/m 0,2 m/s (0 Bft) W45 275 0 min 1,52 klux 9,5 C 13,9 C
03.07.2011 21:46 13,4 C 14,5 C 14,9 C 76 % 1015 hPa 0,0 l/m 0,0 m/s (0 Bft) W22.5 265 0 min 895 lux 9,3 C 13,4 C
03.07.2011 22:01 12,9 C 14,0 C 14,6 C 78 % 1016 hPa 0,0 l/m 0,0 m/s (0 Bft) W22.5 265 0 min 365 lux 9,2 C 12,9 C
03.07.2011 22:16 12,7 C 13,8 C 14,4 C 79 % 1016 hPa 0,0 l/m 0,0 m/s (0 Bft) W-NW45 300 0 min 80 lux 9,2 C 12,7 C
03.07.2011 22:31 12,4 C 13,5 C 14,2 C 79 % 1016 hPa 0,0 l/m 0,0 m/s (0 Bft) W 280 0 min 16 lux 8,9 C 12,4 C
03.07.2011 22:46 12,3 C 13,3 C 14,1 C 80 % 1016 hPa 0,0 l/m 0,0 m/s (0 Bft) W-NW22.5 285 0 min 0 lux 8,9 C 12,3 C
03.07.2011 23:01 12,4 C 13,2 C 14,0 C 80 % 1016 hPa 0,0 l/m 0,0 m/s (0 Bft) W 280 0 min 0 lux 9,0 C 12,4 C
03.07.2011 23:16 12,4 C 13,3 C 14,0 C 80 % 1016 hPa 0,0 l/m 0,0 m/s (0 Bft) W 275 0 min 0 lux 9,0 C 12,4 C
03.07.2011 23:31 12,6 C 13,3 C 14,0 C 81 % 1016 hPa 0,0 l/m 0,0 m/s (0 Bft) W 280 0 min 0 lux 9,4 C 12,6 C
03.07.2011 23:46 12,8 C 13,4 C 14,0 C 80 % 1016 hPa 0,0 l/m 0,2 m/s (0 Bft) W22.5 270 0 min 0 lux 9,4 C 12,8 C
_ Min-Zeit 05:31 05:16 05:31 16:46 04:01 - 19:16 - - - - 03:31 08:45
Minimum _ 11,4 C 12,0 C 12,5 C 67 % 1013 hPa - 0,0 m/s (0 Bft) - - - - 6,5 C 4,3 C
_ Max-Zeit 16:46 19:16 17:16 23:31 22:01 00:01 14:01 - - 19:01 16:16 18:46 18:46
Maximum _ 15,9 C 17,1 C 17,6 C 81 % 1016 hPa 0,0 l/m 8,4 m/s
N-NW (5 Bft)
- - 15 min 46,5 klux 10,1 C 15,8 C
Durchschnitt _ 13,2 C 14,0 C 14,7 C 72 % 1014 hPa #0,0 l/m 4,0 m/s (3 Bft) NW - #45 min. 12,9 klux 8,3 C 9,3 C